createdAt,value
2019-02-10T00:02:14.943Z,68.82
2019-02-10T00:04:45.339Z,68.81
2019-02-10T00:07:15.826Z,68.89
2019-02-10T00:09:46.455Z,68.69
2019-02-10T00:12:17.078Z,68.86
2019-02-10T00:14:48.837Z,68.90
2019-02-10T00:17:19.305Z,68.87
2019-02-10T00:19:49.687Z,68.58
2019-02-10T00:22:20.231Z,68.33
2019-02-10T00:24:54.282Z,68.19
2019-02-10T00:27:24.793Z,68.20
2019-02-10T00:29:55.421Z,68.10
2019-02-10T00:32:25.986Z,68.20
2019-02-10T00:34:56.405Z,68.09
2019-02-10T00:37:26.810Z,68.04
2019-02-10T00:39:57.207Z,68.12
2019-02-10T00:42:27.632Z,68.27
2019-02-10T00:44:57.998Z,68.38
2019-02-10T00:47:28.353Z,68.23
2019-02-10T00:49:58.698Z,68.26
2019-02-10T00:52:29.089Z,67.94
2019-02-10T00:54:59.574Z,68.39
2019-02-10T00:57:30.152Z,68.49
2019-02-10T01:00:00.550Z,68.23
2019-02-10T01:02:31.436Z,68.42
2019-02-10T01:05:02.124Z,68.34
2019-02-10T01:07:32.764Z,68.39
2019-02-10T01:10:03.168Z,68.32
2019-02-10T01:12:33.562Z,68.25
2019-02-10T01:15:03.868Z,68.31
2019-02-10T01:17:34.475Z,68.52
2019-02-10T01:20:04.907Z,68.62
2019-02-10T01:22:35.272Z,68.79
2019-02-10T01:25:05.821Z,68.79
2019-02-10T01:27:36.268Z,68.72
2019-02-10T01:30:07.479Z,68.47
2019-02-10T01:32:37.933Z,68.81
2019-02-10T01:35:08.376Z,68.89
2019-02-10T01:37:39.507Z,68.86
2019-02-10T01:40:11.291Z,69.26
2019-02-10T01:42:42.182Z,69.29
2019-02-10T01:45:13.168Z,69.23
2019-02-10T01:47:43.548Z,69.54
2019-02-10T01:50:13.919Z,69.75
2019-02-10T01:52:44.322Z,70.04
2019-02-10T01:55:15.208Z,70.29
2019-02-10T01:57:46.072Z,70.55
2019-02-10T02:00:17.352Z,70.99
2019-02-10T02:02:47.660Z,70.85
2019-02-10T02:05:18.119Z,70.82
2019-02-10T02:07:48.762Z,70.67
2019-02-10T02:10:19.132Z,70.59
2019-02-10T02:12:50.028Z,70.70
2019-02-10T02:15:20.442Z,70.84
2019-02-10T02:17:50.826Z,71.02
2019-02-10T02:20:21.131Z,70.96
2019-02-10T02:22:51.537Z,70.87
2019-02-10T02:25:21.832Z,70.85
2019-02-10T02:27:52.632Z,70.69
2019-02-10T02:30:23.108Z,70.84
2019-02-10T02:32:53.502Z,71.05
2019-02-10T02:35:23.853Z,71.05
2019-02-10T02:37:54.547Z,71.24
2019-02-10T02:40:24.901Z,71.50
2019-02-10T02:42:55.351Z,71.56
2019-02-10T02:45:25.743Z,71.62
2019-02-10T02:47:56.056Z,71.32
2019-02-10T02:50:28.086Z,71.49
2019-02-10T02:52:58.427Z,71.39
2019-02-10T02:55:28.889Z,71.06
2019-02-10T02:57:59.511Z,70.75
2019-02-10T03:00:29.888Z,70.99
2019-02-10T03:03:05.152Z,70.89
2019-02-10T03:05:45.072Z,70.86
2019-02-10T03:08:15.645Z,70.95
2019-02-10T03:10:46.451Z,70.91
2019-02-10T03:13:16.961Z,70.94
2019-02-10T03:15:47.297Z,71.12
2019-02-10T03:18:18.211Z,71.14
2019-02-10T03:20:48.995Z,71.40
2019-02-10T03:23:19.365Z,71.19
2019-02-10T03:25:49.771Z,70.90
2019-02-10T03:28:20.082Z,70.47
2019-02-10T03:30:50.383Z,70.41
2019-02-10T03:33:20.775Z,70.16
2019-02-10T03:35:51.124Z,70.06
2019-02-10T03:38:22.922Z,70.10
2019-02-10T03:40:53.193Z,70.36
2019-02-10T03:43:23.600Z,70.76
2019-02-10T03:45:54.522Z,70.89
2019-02-10T03:48:24.916Z,71.21
2019-02-10T03:50:55.350Z,71.06
2019-02-10T03:53:25.721Z,70.94
2019-02-10T03:55:56.158Z,70.66
2019-02-10T03:58:26.600Z,70.71
2019-02-10T04:00:56.983Z,70.84
2019-02-10T04:03:27.384Z,71.26
2019-02-10T04:05:58.143Z,71.89
2019-02-10T04:08:28.571Z,72.13
2019-02-10T04:10:59.051Z,72.21
2019-02-10T04:13:29.435Z,72.32
2019-02-10T04:15:59.857Z,72.11
2019-02-10T04:18:30.314Z,72.13
2019-02-10T04:21:01.189Z,71.88
2019-02-10T04:23:31.598Z,71.55
2019-02-10T04:26:01.936Z,71.56
2019-02-10T04:28:32.642Z,71.12
2019-02-10T04:31:02.957Z,70.95
2019-02-10T04:33:33.431Z,71.03
2019-02-10T04:36:03.712Z,71.02
2019-02-10T04:38:33.994Z,71.09
2019-02-10T04:41:04.739Z,71.11
2019-02-10T04:43:35.136Z,70.97
2019-02-10T04:46:05.603Z,70.65
2019-02-10T04:48:36.030Z,70.57
2019-02-10T04:51:08.145Z,70.71
2019-02-10T04:53:38.509Z,70.30
2019-02-10T04:56:16.580Z,70.38
2019-02-10T04:58:47.295Z,69.82
2019-02-10T05:01:20.687Z,69.72
2019-02-10T05:03:50.976Z,69.37
2019-02-10T05:06:21.360Z,69.38
2019-02-10T05:08:51.816Z,69.39
2019-02-10T05:11:22.148Z,69.29
2019-02-10T05:13:52.529Z,69.34
2019-02-10T05:16:22.895Z,68.94
2019-02-10T05:18:53.242Z,68.95
2019-02-10T05:21:23.686Z,68.67
2019-02-10T05:24:02.794Z,68.30
2019-02-10T05:26:26.239Z,68.09
2019-02-10T05:28:57.025Z,68.08
2019-02-10T05:31:27.372Z,67.94
2019-02-10T05:33:57.750Z,67.76
2019-02-10T05:36:28.127Z,67.27
2019-02-10T05:38:58.513Z,67.07
2019-02-10T05:41:28.878Z,66.85
2019-02-10T05:43:59.171Z,66.56
2019-02-10T05:46:29.557Z,66.63
2019-02-10T05:48:59.928Z,66.57
2019-02-10T05:51:30.337Z,66.75
2019-02-10T05:54:01.031Z,66.54
2019-02-10T05:56:31.442Z,66.61
2019-02-10T05:59:01.912Z,66.54
2019-02-10T06:01:59.525Z,66.38
2019-02-10T06:04:30.282Z,66.17
2019-02-10T06:07:03.091Z,66.16
2019-02-10T06:09:33.387Z,66.19
2019-02-10T06:12:03.747Z,66.08
2019-02-10T06:14:34.131Z,66.00
2019-02-10T06:17:04.507Z,65.69
2019-02-10T06:19:35.024Z,65.70
2019-02-10T06:22:05.345Z,65.47
2019-02-10T06:24:36.044Z,65.42
2019-02-10T06:27:06.409Z,65.32
2019-02-10T06:29:36.862Z,64.98
2019-02-10T06:32:07.319Z,65.02
2019-02-10T06:34:37.657Z,64.78
2019-02-10T06:37:08.180Z,64.59
2019-02-10T06:39:38.505Z,64.28
2019-02-10T06:42:09.289Z,63.97
2019-02-10T06:44:39.733Z,63.73
2019-02-10T06:47:10.030Z,63.69
2019-02-10T06:49:40.453Z,63.65
2019-02-10T06:52:10.774Z,63.06
2019-02-10T06:54:46.183Z,63.03
2019-02-10T06:57:16.639Z,63.45
2019-02-10T06:59:52.729Z,62.83
2019-02-10T07:02:32.805Z,62.46
2019-02-10T07:05:03.176Z,62.80
2019-02-10T07:07:33.571Z,63.28
2019-02-10T07:10:03.953Z,63.58
2019-02-10T07:12:52.490Z,63.46
2019-02-10T07:15:57.663Z,63.47
2019-02-10T07:19:02.717Z,63.87
2019-02-10T07:21:42.542Z,64.16
2019-02-10T07:25:03.184Z,64.06
2019-02-10T07:27:34.190Z,64.50
2019-02-10T07:30:43.995Z,64.87
2019-02-10T07:34:00.719Z,65.07
2019-02-10T07:37:10.902Z,65.85
2019-02-10T07:40:15.242Z,66.20
2019-02-10T07:43:07.974Z,66.32
2019-02-10T07:45:59.878Z,66.75
2019-02-10T07:48:48.948Z,67.13
2019-02-10T07:51:41.335Z,67.26
2019-02-10T07:54:27.156Z,67.06
2019-02-10T07:57:22.171Z,66.61
2019-02-10T08:00:45.720Z,66.59
2019-02-10T08:03:51.090Z,67.04
2019-02-10T08:07:10.892Z,67.64
2019-02-10T08:10:23.943Z,68.07
2019-02-10T08:13:17.477Z,68.44
2019-02-10T08:16:12.160Z,68.33
2019-02-10T08:19:24.355Z,67.83
2019-02-10T08:22:52.880Z,67.81
2019-02-10T08:25:52.492Z,68.22
2019-02-10T08:29:05.128Z,68.44
2019-02-10T08:32:26.097Z,68.15
2019-02-10T08:35:42.758Z,67.58
2019-02-10T08:38:29.877Z,67.66
2019-02-10T08:41:35.064Z,67.07
2019-02-10T08:44:46.712Z,66.64
2019-02-10T08:47:55.072Z,65.83
2019-02-10T08:50:54.219Z,65.40
2019-02-10T08:53:29.048Z,64.45
2019-02-10T08:55:59.477Z,64.29
2019-02-10T08:58:31.016Z,63.68
2019-02-10T09:01:01.432Z,63.00
2019-02-10T09:03:31.875Z,62.58
2019-02-10T09:06:02.323Z,62.61
2019-02-10T09:08:32.659Z,62.96
2019-02-10T09:11:03.020Z,62.97
2019-02-10T09:13:33.349Z,62.60
2019-02-10T09:16:03.863Z,62.42
2019-02-10T09:18:34.219Z,62.04
2019-02-10T09:21:07.254Z,61.82
2019-02-10T09:23:38.206Z,62.23
2019-02-10T09:26:09.233Z,62.22
2019-02-10T09:28:39.632Z,62.45
2019-02-10T09:31:10.471Z,62.17
2019-02-10T09:33:40.878Z,61.97
2019-02-10T09:36:11.836Z,61.67
2019-02-10T09:38:42.541Z,62.58
2019-02-10T09:41:13.125Z,63.50
2019-02-10T09:43:43.590Z,63.89
2019-02-10T09:46:14.378Z,64.72
2019-02-10T09:48:44.712Z,65.74
2019-02-10T09:51:15.433Z,65.97
2019-02-10T09:53:45.840Z,66.07
2019-02-10T09:56:16.183Z,66.35
2019-02-10T09:58:46.617Z,65.71
2019-02-10T10:01:17.768Z,65.80
2019-02-10T10:03:48.165Z,65.88
2019-02-10T10:06:18.619Z,66.14
2019-02-10T10:08:49.040Z,66.37
2019-02-10T10:11:24.686Z,66.79
2019-02-10T10:13:59.842Z,67.46
2019-02-10T10:16:30.331Z,68.19
2019-02-10T10:19:00.664Z,68.17
2019-02-10T10:21:30.996Z,68.11
2019-02-10T10:24:01.277Z,67.69
2019-02-10T10:26:31.906Z,67.66
2019-02-10T10:29:02.343Z,66.84
2019-02-10T10:31:35.003Z,65.85
2019-02-10T10:34:08.893Z,65.84
2019-02-10T10:36:43.695Z,65.27
2019-02-10T10:39:14.081Z,65.22
2019-02-10T10:41:44.495Z,64.99
2019-02-10T10:44:14.845Z,64.72
2019-02-10T10:46:47.042Z,64.58
2019-02-10T10:49:17.461Z,64.18
2019-02-10T10:51:47.941Z,63.99
2019-02-10T10:54:20.083Z,63.75
2019-02-10T10:56:53.679Z,63.87
2019-02-10T10:59:24.263Z,63.23
2019-02-10T11:01:54.749Z,63.39
2019-02-10T11:04:25.078Z,62.96
2019-02-10T11:06:55.516Z,62.54
2019-02-10T11:09:25.923Z,62.38
2019-02-10T11:11:56.376Z,61.63
2019-02-10T11:14:26.700Z,61.79
2019-02-10T11:16:57.692Z,61.33
2019-02-10T11:19:28.057Z,61.06
2019-02-10T11:21:59.153Z,61.19
2019-02-10T11:24:29.519Z,61.12
2019-02-10T11:27:00.435Z,59.92
2019-02-10T11:29:30.941Z,60.14
2019-02-10T11:32:01.341Z,59.72
2019-02-10T11:34:32.646Z,60.17
2019-02-10T11:37:03.914Z,59.48
2019-02-10T11:39:34.340Z,59.93
2019-02-10T11:42:36.214Z,59.66
2019-02-10T11:45:09.083Z,59.96
2019-02-10T11:47:40.481Z,59.84
2019-02-10T11:50:11.471Z,60.54
2019-02-10T11:52:42.992Z,60.41
2019-02-10T11:55:13.593Z,60.24
2019-02-10T11:57:44.135Z,59.95
2019-02-10T12:00:15.019Z,60.18
2019-02-10T12:02:45.509Z,59.70
2019-02-10T12:05:15.879Z,60.05
2019-02-10T12:07:49.719Z,59.83
2019-02-10T12:10:21.136Z,59.60
2019-02-10T12:12:52.341Z,59.27
2019-02-10T12:15:22.842Z,58.76
2019-02-10T12:17:53.888Z,58.78
2019-02-10T12:20:24.340Z,58.62
2019-02-10T12:22:54.780Z,58.66
2019-02-10T12:25:25.854Z,59.05
2019-02-10T12:27:56.639Z,59.32
2019-02-10T12:30:27.159Z,59.84
2019-02-10T12:32:57.858Z,60.17
2019-02-10T12:35:29.052Z,59.20
2019-02-10T12:38:00.339Z,59.92
2019-02-10T12:40:30.798Z,60.11
2019-02-10T12:43:03.177Z,59.78
2019-02-10T12:45:35.174Z,60.21
2019-02-10T12:48:06.631Z,60.25
2019-02-10T12:50:39.100Z,60.83
2019-02-10T12:53:09.633Z,60.97
2019-02-10T12:55:40.148Z,60.48
2019-02-10T12:58:11.332Z,60.84
2019-02-10T13:00:41.973Z,59.99
2019-02-10T13:03:12.822Z,60.24
2019-02-10T13:05:44.189Z,59.54
2019-02-10T13:08:14.754Z,58.74
2019-02-10T13:10:45.332Z,58.81
2019-02-10T13:13:19.309Z,58.90
2019-02-10T13:15:50.576Z,58.32
2019-02-10T13:18:23.052Z,57.28
2019-02-10T13:20:54.068Z,57.16
2019-02-10T13:23:24.827Z,58.73
2019-02-10T13:26:03.543Z,59.57
2019-02-10T13:28:34.173Z,60.58
2019-02-10T13:31:04.705Z,60.72
2019-02-10T13:33:35.455Z,59.95
2019-02-10T13:36:07.796Z,59.95
2019-02-10T13:38:38.302Z,59.63
2019-02-10T13:41:13.069Z,58.48
2019-02-10T13:43:44.087Z,58.83
2019-02-10T13:46:15.673Z,57.50
2019-02-10T13:48:46.256Z,57.90
2019-02-10T13:51:17.865Z,56.93
2019-02-10T13:53:48.733Z,56.67
2019-02-10T13:56:19.156Z,55.87
2019-02-10T13:58:49.561Z,56.58
2019-02-10T14:01:20.697Z,56.87
2019-02-10T14:03:51.355Z,56.88
2019-02-10T14:06:22.201Z,56.85
2019-02-10T14:12:21.774Z,56.66
2019-02-10T14:14:53.981Z,57.74
2019-02-10T14:17:24.604Z,57.55
2019-02-10T14:19:55.237Z,57.91
2019-02-10T14:22:25.909Z,57.51
2019-02-10T14:24:56.424Z,56.60
2019-02-10T14:27:26.930Z,56.13
2019-02-10T14:30:00.290Z,55.93
2019-02-10T14:32:32.024Z,55.59
2019-02-10T14:35:05.336Z,55.18
2019-02-10T14:37:36.412Z,54.73
2019-02-10T14:40:07.681Z,54.59
2019-02-10T14:42:38.832Z,55.24
2019-02-10T14:45:09.532Z,54.75
2019-02-10T14:47:41.146Z,54.66
2019-02-10T14:50:13.263Z,55.19
2019-02-10T14:52:43.918Z,55.25
2019-02-10T14:55:18.629Z,55.16
2019-02-10T14:57:50.034Z,55.90
2019-02-10T15:00:20.677Z,56.15
2019-02-10T15:02:51.581Z,56.35
2019-02-10T15:05:22.537Z,56.43
2019-02-10T15:07:56.254Z,56.50
2019-02-10T15:10:27.730Z,56.44
2019-02-10T15:13:00.982Z,56.36
2019-02-10T15:15:33.386Z,56.03
2019-02-10T15:18:05.386Z,56.17
2019-02-10T15:20:36.365Z,56.11
2019-02-10T15:23:07.907Z,55.88
2019-02-10T15:25:38.877Z,55.23
2019-02-10T15:28:12.856Z,55.50
2019-02-10T15:30:44.892Z,55.68
2019-02-10T15:33:15.628Z,56.04
2019-02-10T15:35:46.467Z,56.41
2019-02-10T15:38:20.365Z,56.43
2019-02-10T15:40:52.756Z,56.53
2019-02-10T15:43:23.620Z,56.38
2019-02-10T15:45:54.519Z,56.21
2019-02-10T15:48:42.501Z,56.57
2019-02-10T15:51:47.820Z,56.67
2019-02-10T15:58:01.385Z,56.98
2019-02-10T16:00:32.577Z,57.29
2019-02-10T16:03:04.092Z,57.63
2019-02-10T16:05:35.452Z,57.78
2019-02-10T16:08:07.854Z,57.98
2019-02-10T16:10:39.086Z,58.33
2019-02-10T16:13:11.437Z,58.30
2019-02-10T16:15:43.400Z,58.82
2019-02-10T16:18:14.660Z,59.22
2019-02-10T16:20:45.447Z,59.05
2019-02-10T16:23:16.481Z,59.47
2019-02-10T16:25:55.091Z,59.71
2019-02-10T16:28:26.158Z,60.15
2019-02-10T16:30:56.972Z,60.26
2019-02-10T16:33:27.546Z,60.52
2019-02-10T16:35:58.369Z,60.70
2019-02-10T16:38:29.109Z,61.19
2019-02-10T16:41:06.211Z,61.63
2019-02-10T16:43:32.983Z,61.72
2019-02-10T16:46:04.845Z,61.81
2019-02-10T16:48:35.820Z,62.12
2019-02-10T16:51:09.085Z,62.14
2019-02-10T16:53:40.389Z,62.63
2019-02-10T16:56:11.055Z,62.91
2019-02-10T16:58:45.692Z,63.15
2019-02-10T17:01:17.180Z,63.36
2019-02-10T17:03:47.908Z,63.54
2019-02-10T17:06:18.605Z,63.80
2019-02-10T17:08:49.321Z,64.20
2019-02-10T17:11:20.132Z,64.47
2019-02-10T17:13:50.804Z,64.61
2019-02-10T17:16:21.609Z,64.52
2019-02-10T17:18:53.883Z,64.62
2019-02-10T17:21:24.950Z,64.78
2019-02-10T17:23:57.726Z,64.93
2019-02-10T17:26:28.541Z,65.33
2019-02-10T17:28:59.712Z,65.33
2019-02-10T17:31:30.463Z,65.28
2019-02-10T17:34:01.344Z,65.65
2019-02-10T17:36:32.270Z,65.75
2019-02-10T17:39:03.789Z,65.87
2019-02-10T17:41:39.581Z,66.19
2019-02-10T17:44:10.832Z,66.10
2019-02-10T17:46:41.946Z,66.48
2019-02-10T17:49:12.570Z,66.66
2019-02-10T17:51:44.220Z,66.51
2019-02-10T17:54:15.767Z,66.63
2019-02-10T17:56:46.459Z,66.75
2019-02-10T17:59:17.231Z,66.33
2019-02-10T18:01:50.455Z,66.05
2019-02-10T18:04:21.811Z,65.25
2019-02-10T18:06:52.425Z,65.36
2019-02-10T18:09:23.814Z,65.30
2019-02-10T18:11:54.462Z,65.24
2019-02-10T18:14:52.834Z,65.33
2019-02-10T18:17:37.794Z,65.28
2019-02-10T18:20:34.079Z,65.55
2019-02-10T18:23:32.609Z,65.91
2019-02-10T18:26:27.883Z,65.96
2019-02-10T18:29:23.691Z,66.24
2019-02-10T18:32:16.242Z,66.31
2019-02-10T18:35:06.070Z,66.39
2019-02-10T18:38:01.981Z,66.03
2019-02-10T18:40:54.132Z,64.96
2019-02-10T18:43:47.179Z,64.30
2019-02-10T18:46:37.712Z,63.93
2019-02-10T18:49:20.267Z,63.56
2019-02-10T18:52:10.069Z,62.94
2019-02-10T18:55:05.558Z,62.99
2019-02-10T18:57:55.441Z,63.16
2019-02-10T19:00:38.044Z,62.69
2019-02-10T19:03:45.696Z,62.23
2019-02-10T19:06:33.173Z,62.29
2019-02-10T19:09:14.289Z,62.61
2019-02-10T19:12:15.726Z,62.21
2019-02-10T19:15:03.937Z,62.06
2019-02-10T19:17:45.258Z,62.09
2019-02-10T19:20:37.666Z,61.94
2019-02-10T19:23:17.340Z,62.57
2019-02-10T19:26:09.811Z,62.25
2019-02-10T19:28:53.124Z,62.28
2019-02-10T19:31:36.508Z,62.35
2019-02-10T19:34:44.081Z,62.33
2019-02-10T19:37:39.167Z,62.34
2019-02-10T19:40:35.458Z,62.52
2019-02-10T19:43:28.524Z,62.51
2019-02-10T19:46:24.116Z,62.38
2019-02-10T19:49:26.714Z,62.15
2019-02-10T19:52:12.926Z,62.23
2019-02-10T19:55:16.241Z,62.08
2019-02-10T19:58:06.460Z,61.96
2019-02-10T20:00:54.993Z,62.11
2019-02-10T20:03:51.957Z,61.94
2019-02-10T20:06:37.755Z,61.34
2019-02-10T20:09:40.462Z,61.32
2019-02-10T20:12:39.165Z,61.34
2019-02-10T20:15:16.812Z,61.56
2019-02-10T20:18:06.241Z,61.82
2019-02-10T20:20:55.651Z,62.02
2019-02-10T20:23:47.990Z,62.24
2019-02-10T20:26:37.657Z,62.18
2019-02-10T20:29:24.603Z,62.57
2019-02-10T20:32:29.040Z,62.74
2019-02-10T20:35:08.587Z,62.39
2019-02-10T20:38:00.657Z,62.29
2019-02-10T20:40:53.284Z,62.04
2019-02-10T20:43:48.369Z,61.92
2019-02-10T20:46:29.771Z,61.80
2019-02-10T20:49:21.985Z,61.84
2019-02-10T20:52:14.402Z,61.70
2019-02-10T20:55:02.119Z,61.78
2019-02-10T20:57:55.492Z,62.22
2019-02-10T21:00:51.191Z,62.38
2019-02-10T21:03:29.932Z,62.39
2019-02-10T21:06:37.912Z,62.38
2019-02-10T21:09:24.239Z,62.48
2019-02-10T21:12:20.699Z,62.43
2019-02-10T21:15:05.693Z,62.42
2019-02-10T21:17:53.343Z,62.30
2019-02-10T21:20:35.843Z,62.37
2019-02-10T21:23:11.931Z,62.45
2019-02-10T21:25:52.748Z,62.41
2019-02-10T21:28:35.102Z,62.23
2019-02-10T21:31:23.061Z,62.51
2019-02-10T21:34:12.470Z,62.91
2019-02-10T21:37:01.948Z,63.80
2019-02-10T21:39:39.016Z,64.64
2019-02-10T21:42:29.058Z,64.76
2019-02-10T21:45:25.642Z,64.92
2019-02-10T21:48:14.531Z,64.61
2019-02-10T21:50:45.836Z,64.48
2019-02-10T21:53:16.320Z,63.27
2019-02-10T21:55:46.997Z,63.07
2019-02-10T21:58:18.056Z,62.71
2019-02-10T22:00:54.203Z,62.58
2019-02-10T22:03:25.081Z,62.13
2019-02-10T22:05:55.815Z,61.60
2019-02-10T22:08:26.322Z,61.20
2019-02-10T22:10:56.851Z,61.15
2019-02-10T22:13:27.807Z,61.15
2019-02-10T22:15:58.826Z,61.04
2019-02-10T22:18:29.508Z,61.08
2019-02-10T22:21:01.122Z,61.36
2019-02-10T22:23:32.519Z,61.20
2019-02-10T22:26:08.365Z,61.18
2019-02-10T22:28:38.713Z,61.20
2019-02-10T22:31:09.252Z,61.45
2019-02-10T22:33:39.591Z,61.48
2019-02-10T22:36:12.203Z,61.55
2019-02-10T22:38:42.722Z,61.64
2019-02-10T22:41:13.133Z,61.67
2019-02-10T22:43:44.229Z,61.57
2019-02-10T22:46:15.965Z,61.96
2019-02-10T22:48:47.404Z,62.07
2019-02-10T22:51:17.884Z,62.42
2019-02-10T22:53:48.325Z,62.24
2019-02-10T22:56:19.863Z,62.10
2019-02-10T22:58:50.621Z,62.21
2019-02-10T23:01:21.208Z,62.22
2019-02-10T23:03:51.782Z,62.16
2019-02-10T23:06:22.425Z,61.95
2019-02-10T23:08:53.012Z,62.11
2019-02-10T23:11:23.501Z,62.13
2019-02-10T23:13:53.857Z,62.16
2019-02-10T23:16:24.735Z,62.22
2019-02-10T23:18:55.533Z,62.43
2019-02-10T23:21:26.092Z,62.68
2019-02-10T23:23:56.769Z,62.81
2019-02-10T23:26:27.162Z,63.28
2019-02-10T23:28:57.634Z,63.35
2019-02-10T23:31:28.413Z,63.44
2019-02-10T23:33:58.857Z,63.81
2019-02-10T23:36:29.412Z,64.06
2019-02-10T23:38:59.958Z,64.21
2019-02-10T23:41:30.334Z,64.27
2019-02-10T23:44:01.222Z,64.54
2019-02-10T23:46:31.700Z,64.78
2019-02-10T23:49:02.385Z,64.84
2019-02-10T23:51:32.736Z,65.21
2019-02-10T23:54:03.703Z,65.22
2019-02-10T23:56:34.267Z,65.27
2019-02-10T23:59:05.795Z,65.67
